sensor_id;sensor_type;location;lat;lon;timestamp;pressure;altitude;pressure_sealevel;temperature;humidity
41596;BME280;27283;52.504;13.358;2023-07-31T00:01:18;100736.09;;;14.84;100.00
41596;BME280;27283;52.504;13.358;2023-07-31T00:03:54;100734.44;;;14.83;100.00
41596;BME280;27283;52.504;13.358;2023-07-31T00:06:26;100733.84;;;14.87;100.00
41596;BME280;27283;52.504;13.358;2023-07-31T00:09:04;100731.34;;;14.86;100.00
41596;BME280;27283;52.504;13.358;2023-07-31T00:11:40;100735.84;;;14.79;100.00
41596;BME280;27283;52.504;13.358;2023-07-31T00:14:12;100732.91;;;14.74;100.00
41596;BME280;27283;52.504;13.358;2023-07-31T00:16:48;100731.66;;;14.76;100.00
41596;BME280;27283;52.504;13.358;2023-07-31T00:19:21;100730.19;;;14.74;100.00
41596;BME280;27283;52.504;13.358;2023-07-31T00:21:53;100730.44;;;14.79;100.00
41596;BME280;27283;52.504;13.358;2023-07-31T00:24:26;100717.69;;;14.73;100.00
41596;BME280;27283;52.504;13.358;2023-07-31T00:27:01;100721.41;;;14.71;100.00
41596;BME280;27283;52.504;13.358;2023-07-31T00:29:34;100713.38;;;14.78;100.00
41596;BME280;27283;52.504;13.358;2023-07-31T00:32:09;100701.75;;;14.84;100.00
41596;BME280;27283;52.504;13.358;2023-07-31T00:34:42;100699.75;;;14.93;100.00
41596;BME280;27283;52.504;13.358;2023-07-31T00:37:14;100704.19;;;15.01;100.00
41596;BME280;27283;52.504;13.358;2023-07-31T00:39:47;100701.53;;;15.07;100.00
41596;BME280;27283;52.504;13.358;2023-07-31T00:42:19;100696.91;;;15.01;100.00
41596;BME280;27283;52.504;13.358;2023-07-31T00:44:51;100702.63;;;15.13;100.00
41596;BME280;27283;52.504;13.358;2023-07-31T00:47:26;100701.97;;;15.11;100.00
41596;BME280;27283;52.504;13.358;2023-07-31T00:49:59;100704.22;;;15.07;100.00
41596;BME280;27283;52.504;13.358;2023-07-31T00:52:32;100701.13;;;15.11;100.00
41596;BME280;27283;52.504;13.358;2023-07-31T00:55:05;100698.09;;;15.20;100.00
41596;BME280;27283;52.504;13.358;2023-07-31T00:57:38;100702.63;;;15.13;100.00
41596;BME280;27283;52.504;13.358;2023-07-31T01:00:34;100698.28;;;15.19;100.00
41596;BME280;27283;52.504;13.358;2023-07-31T01:03:09;100697.09;;;15.28;100.00
41596;BME280;27283;52.504;13.358;2023-07-31T01:05:49;100691.09;;;15.33;100.00
41596;BME280;27283;52.504;13.358;2023-07-31T01:08:39;100689.41;;;15.32;100.00
41596;BME280;27283;52.504;13.358;2023-07-31T01:11:19;100689.91;;;15.49;100.00
41596;BME280;27283;52.504;13.358;2023-07-31T01:13:54;100691.38;;;15.45;100.00
41596;BME280;27283;52.504;13.358;2023-07-31T01:16:27;100693.41;;;15.42;100.00
41596;BME280;27283;52.504;13.358;2023-07-31T01:19:02;100688.25;;;15.48;100.00
41596;BME280;27283;52.504;13.358;2023-07-31T01:21:53;100687.44;;;15.54;100.00
41596;BME280;27283;52.504;13.358;2023-07-31T01:24:36;100680.19;;;15.61;100.00
41596;BME280;27283;52.504;13.358;2023-07-31T01:27:24;100672.63;;;15.50;100.00
41596;BME280;27283;52.504;13.358;2023-07-31T01:30:03;100687.28;;;15.62;100.00
41596;BME280;27283;52.504;13.358;2023-07-31T01:32:48;100678.59;;;15.73;100.00
41596;BME280;27283;52.504;13.358;2023-07-31T01:35:21;100687.75;;;15.72;100.00
41596;BME280;27283;52.504;13.358;2023-07-31T01:37:54;100669.34;;;15.61;100.00
41596;BME280;27283;52.504;13.358;2023-07-31T01:40:26;100667.50;;;15.68;100.00
41596;BME280;27283;52.504;13.358;2023-07-31T01:43:02;100673.09;;;15.60;100.00
41596;BME280;27283;52.504;13.358;2023-07-31T01:45:34;100667.19;;;15.50;100.00
41596;BME280;27283;52.504;13.358;2023-07-31T01:48:07;100662.78;;;15.42;100.00
41596;BME280;27283;52.504;13.358;2023-07-31T01:50:39;100663.63;;;15.42;100.00
41596;BME280;27283;52.504;13.358;2023-07-31T01:53:12;100656.75;;;15.47;100.00
41596;BME280;27283;52.504;13.358;2023-07-31T01:55:44;100649.78;;;15.31;100.00
41596;BME280;27283;52.504;13.358;2023-07-31T01:58:19;100650.44;;;15.33;100.00
41596;BME280;27283;52.504;13.358;2023-07-31T02:00:51;100645.66;;;15.35;100.00
41596;BME280;27283;52.504;13.358;2023-07-31T02:03:24;100645.94;;;15.53;100.00
41596;BME280;27283;52.504;13.358;2023-07-31T02:05:57;100648.72;;;15.60;100.00
41596;BME280;27283;52.504;13.358;2023-07-31T02:08:29;100647.09;;;15.72;100.00
41596;BME280;27283;52.504;13.358;2023-07-31T02:11:01;100649.94;;;15.57;100.00
41596;BME280;27283;52.504;13.358;2023-07-31T02:13:37;100650.59;;;15.59;100.00
41596;BME280;27283;52.504;13.358;2023-07-31T02:16:09;100650.34;;;15.54;100.00
41596;BME280;27283;52.504;13.358;2023-07-31T02:18:42;100639.34;;;15.63;100.00
41596;BME280;27283;52.504;13.358;2023-07-31T02:21:14;100639.44;;;15.83;100.00
41596;BME280;27283;52.504;13.358;2023-07-31T02:23:46;100637.41;;;15.91;100.00
41596;BME280;27283;52.504;13.358;2023-07-31T02:26:22;100638.44;;;15.97;99.81
41596;BME280;27283;52.504;13.358;2023-07-31T02:29:00;100637.81;;;16.02;98.48
41596;BME280;27283;52.504;13.358;2023-07-31T02:31:32;100637.19;;;15.93;98.45
41596;BME280;27283;52.504;13.358;2023-07-31T02:34:05;100642.09;;;15.76;100.00
41596;BME280;27283;52.504;13.358;2023-07-31T02:36:37;100634.97;;;15.68;100.00
41596;BME280;27283;52.504;13.358;2023-07-31T02:39:10;100635.16;;;15.67;100.00
41596;BME280;27283;52.504;13.358;2023-07-31T02:41:42;100627.13;;;15.80;100.00
41596;BME280;27283;52.504;13.358;2023-07-31T02:44:18;100621.94;;;15.85;100.00
41596;BME280;27283;52.504;13.358;2023-07-31T02:46:50;100620.94;;;16.00;100.00
41596;BME280;27283;52.504;13.358;2023-07-31T02:49:22;100621.53;;;15.88;100.00
41596;BME280;27283;52.504;13.358;2023-07-31T02:51:55;100614.88;;;15.98;100.00
41596;BME280;27283;52.504;13.358;2023-07-31T02:54:27;100617.81;;;15.96;100.00
41596;BME280;27283;52.504;13.358;2023-07-31T02:57:00;100618.41;;;15.91;100.00
41596;BME280;27283;52.504;13.358;2023-07-31T02:59:43;100623.19;;;15.89;100.00
41596;BME280;27283;52.504;13.358;2023-07-31T03:02:18;100621.53;;;16.02;100.00
41596;BME280;27283;52.504;13.358;2023-07-31T03:04:53;100619.28;;;16.05;100.00
41596;BME280;27283;52.504;13.358;2023-07-31T03:07:25;100620.31;;;15.98;100.00
41596;BME280;27283;52.504;13.358;2023-07-31T03:09:57;100617.81;;;16.03;100.00
41596;BME280;27283;52.504;13.358;2023-07-31T03:12:30;100619.66;;;15.82;100.00
41596;BME280;27283;52.504;13.358;2023-07-31T03:15:06;100616.66;;;15.70;100.00
41596;BME280;27283;52.504;13.358;2023-07-31T03:17:39;100610.25;;;15.85;100.00
41596;BME280;27283;52.504;13.358;2023-07-31T03:20:11;100605.69;;;15.85;100.00
41596;BME280;27283;52.504;13.358;2023-07-31T03:22:47;100613.00;;;15.91;100.00
41596;BME280;27283;52.504;13.358;2023-07-31T03:25:20;100608.47;;;15.64;100.00
41596;BME280;27283;52.504;13.358;2023-07-31T03:27:52;100609.53;;;15.69;100.00
41596;BME280;27283;52.504;13.358;2023-07-31T03:30:30;100602.03;;;15.65;100.00
41596;BME280;27283;52.504;13.358;2023-07-31T03:33:03;100598.25;;;15.59;100.00
41596;BME280;27283;52.504;13.358;2023-07-31T03:35:39;100591.94;;;15.52;100.00
41596;BME280;27283;52.504;13.358;2023-07-31T03:38:11;100596.75;;;15.50;100.00
41596;BME280;27283;52.504;13.358;2023-07-31T03:40:44;100598.25;;;15.59;100.00
41596;BME280;27283;52.504;13.358;2023-07-31T03:43:16;100591.78;;;15.60;100.00
41596;BME280;27283;52.504;13.358;2023-07-31T03:45:51;100586.16;;;15.62;100.00
41596;BME280;27283;52.504;13.358;2023-07-31T03:48:24;100581.63;;;15.69;100.00
41596;BME280;27283;52.504;13.358;2023-07-31T03:50:56;100589.91;;;15.60;100.00
41596;BME280;27283;52.504;13.358;2023-07-31T03:53:29;100579.69;;;15.56;100.00
41596;BME280;27283;52.504;13.358;2023-07-31T03:56:01;100581.09;;;15.38;100.00
41596;BME280;27283;52.504;13.358;2023-07-31T03:58:33;100577.72;;;15.36;100.00
41596;BME280;27283;52.504;13.358;2023-07-31T04:01:09;100584.19;;;15.35;100.00
41596;BME280;27283;52.504;13.358;2023-07-31T04:03:44;100578.34;;;15.32;100.00
41596;BME280;27283;52.504;13.358;2023-07-31T04:06:23;100579.81;;;15.41;100.00
41596;BME280;27283;52.504;13.358;2023-07-31T04:08:56;100577.16;;;15.48;100.00
41596;BME280;27283;52.504;13.358;2023-07-31T04:11:29;100574.25;;;15.49;100.00
41596;BME280;27283;52.504;13.358;2023-07-31T04:14:01;100575.28;;;15.55;100.00
41596;BME280;27283;52.504;13.358;2023-07-31T04:16:36;100574.25;;;15.49;100.00
41596;BME280;27283;52.504;13.358;2023-07-31T04:19:09;100571.78;;;15.61;100.00
41596;BME280;27283;52.504;13.358;2023-07-31T04:21:46;100563.25;;;15.64;100.00
41596;BME280;27283;52.504;13.358;2023-07-31T04:24:19;100568.06;;;15.75;100.00
41596;BME280;27283;52.504;13.358;2023-07-31T04:26:57;100557.22;;;15.75;100.00
41596;BME280;27283;52.504;13.358;2023-07-31T04:29:29;100557.50;;;15.87;100.00
41596;BME280;27283;52.504;13.358;2023-07-31T04:32:05;100547.00;;;15.71;100.00
41596;BME280;27283;52.504;13.358;2023-07-31T04:34:38;100557.19;;;15.62;100.00
41596;BME280;27283;52.504;13.358;2023-07-31T04:37:11;100564.75;;;15.73;100.00
41596;BME280;27283;52.504;13.358;2023-07-31T04:39:43;100558.06;;;15.76;100.00
41596;BME280;27283;52.504;13.358;2023-07-31T04:42:16;100555.13;;;15.71;100.00
41596;BME280;27283;52.504;13.358;2023-07-31T04:44:48;100550.13;;;15.68;100.00
41596;BME280;27283;52.504;13.358;2023-07-31T04:47:24;100550.13;;;15.68;100.00
41596;BME280;27283;52.504;13.358;2023-07-31T04:49:57;100538.03;;;15.70;100.00
41596;BME280;27283;52.504;13.358;2023-07-31T04:52:29;100545.38;;;15.83;100.00
41596;BME280;27283;52.504;13.358;2023-07-31T04:55:01;100543.66;;;15.75;100.00
41596;BME280;27283;52.504;13.358;2023-07-31T04:57:34;100551.81;;;15.69;100.00
41596;BME280;27283;52.504;13.358;2023-07-31T05:00:17;100553.75;;;15.88;100.00
41596;BME280;27283;52.504;13.358;2023-07-31T05:02:53;100556.88;;;15.85;100.00
41596;BME280;27283;52.504;13.358;2023-07-31T05:05:25;100545.81;;;15.87;100.00
41596;BME280;27283;52.504;13.358;2023-07-31T05:08:01;100551.88;;;15.95;100.00
41596;BME280;27283;52.504;13.358;2023-07-31T05:10:36;100541.88;;;16.09;100.00
41596;BME280;27283;52.504;13.358;2023-07-31T05:13:09;100545.03;;;16.26;100.00
41596;BME280;27283;52.504;13.358;2023-07-31T05:15:43;100544.59;;;16.36;100.00
41596;BME280;27283;52.504;13.358;2023-07-31T05:18:21;100548.78;;;16.39;100.00
41596;BME280;27283;52.504;13.358;2023-07-31T05:20:53;100543.75;;;16.49;100.00
41596;BME280;27283;52.504;13.358;2023-07-31T05:23:25;100542.28;;;16.60;100.00
41596;BME280;27283;52.504;13.358;2023-07-31T05:26:03;100543.53;;;16.64;100.00
41596;BME280;27283;52.504;13.358;2023-07-31T05:28:36;100540.22;;;16.55;100.00
41596;BME280;27283;52.504;13.358;2023-07-31T05:31:08;100538.13;;;16.51;100.00
41596;BME280;27283;52.504;13.358;2023-07-31T05:33:43;100540.19;;;16.48;100.00
41596;BME280;27283;52.504;13.358;2023-07-31T05:36:20;100538.75;;;16.46;100.00
41596;BME280;27283;52.504;13.358;2023-07-31T05:38:55;100534.78;;;16.48;100.00
41596;BME280;27283;52.504;13.358;2023-07-31T05:41:27;100530.81;;;16.58;100.00
41596;BME280;27283;52.504;13.358;2023-07-31T05:44:04;100531.03;;;16.36;100.00
41596;BME280;27283;52.504;13.358;2023-07-31T05:46:39;100529.16;;;16.43;100.00
41596;BME280;27283;52.504;13.358;2023-07-31T05:49:16;100520.59;;;16.33;100.00
41596;BME280;27283;52.504;13.358;2023-07-31T05:51:51;100518.47;;;16.62;100.00
41596;BME280;27283;52.504;13.358;2023-07-31T05:54:26;100520.38;;;16.55;100.00
41596;BME280;27283;52.504;13.358;2023-07-31T05:57:01;100525.78;;;16.61;100.00
41596;BME280;27283;52.504;13.358;2023-07-31T05:59:33;100518.47;;;16.62;100.00
41596;BME280;27283;52.504;13.358;2023-07-31T06:02:06;100514.53;;;16.51;100.00
41596;BME280;27283;52.504;13.358;2023-07-31T06:04:44;100518.69;;;16.67;100.00
41596;BME280;27283;52.504;13.358;2023-07-31T06:07:16;100525.13;;;16.79;100.00
41596;BME280;27283;52.504;13.358;2023-07-31T06:09:48;100517.84;;;16.87;100.00
41596;BME280;27283;52.504;13.358;2023-07-31T06:12:21;100520.09;;;17.03;98.90
41596;BME280;27283;52.504;13.358;2023-07-31T06:14:53;100515.94;;;16.87;100.00
41596;BME280;27283;52.504;13.358;2023-07-31T06:17:26;100507.16;;;16.85;100.00
41596;BME280;27283;52.504;13.358;2023-07-31T06:20:01;100512.38;;;16.80;100.00
41596;BME280;27283;52.504;13.358;2023-07-31T06:22:34;100518.19;;;17.04;100.00
41596;BME280;27283;52.504;13.358;2023-07-31T06:25:07;100513.84;;;16.89;100.00
41596;BME280;27283;52.504;13.358;2023-07-31T06:27:43;100510.47;;;16.94;100.00
41596;BME280;27283;52.504;13.358;2023-07-31T06:30:26;100508.63;;;16.94;100.00
41596;BME280;27283;52.504;13.358;2023-07-31T06:33:02;100515.94;;;16.80;100.00
41596;BME280;27283;52.504;13.358;2023-07-31T06:35:37;100516.56;;;16.96;100.00
41596;BME280;27283;52.504;13.358;2023-07-31T06:38:09;100511.03;;;17.16;100.00
41596;BME280;27283;52.504;13.358;2023-07-31T06:40:41;100513.16;;;17.14;100.00
41596;BME280;27283;52.504;13.358;2023-07-31T06:43:13;100510.16;;;17.29;100.00
41596;BME280;27283;52.504;13.358;2023-07-31T06:45:46;100512.00;;;17.35;100.00
41596;BME280;27283;52.504;13.358;2023-07-31T06:48:20;100510.34;;;17.34;100.00
41596;BME280;27283;52.504;13.358;2023-07-31T06:50:55;100511.06;;;17.54;100.00
41596;BME280;27283;52.504;13.358;2023-07-31T06:53:27;100516.09;;;17.51;100.00
41596;BME280;27283;52.504;13.358;2023-07-31T06:56:00;100507.84;;;17.32;100.00
41596;BME280;27283;52.504;13.358;2023-07-31T06:58:32;100510.13;;;17.35;100.00
41596;BME280;27283;52.504;13.358;2023-07-31T07:01:05;100512.28;;;17.59;100.00
41596;BME280;27283;52.504;13.358;2023-07-31T07:03:37;100504.19;;;17.84;99.69
41596;BME280;27283;52.504;13.358;2023-07-31T07:06:12;100515.22;;;17.96;98.79
41596;BME280;27283;52.504;13.358;2023-07-31T07:08:44;100509.09;;;17.68;100.00
41596;BME280;27283;52.504;13.358;2023-07-31T07:11:16;100508.38;;;17.48;100.00
41596;BME280;27283;52.504;13.358;2023-07-31T07:13:48;100522.13;;;17.60;98.93
41596;BME280;27283;52.504;13.358;2023-07-31T07:16:23;100514.06;;;17.40;100.00
41596;BME280;27283;52.504;13.358;2023-07-31T07:18:55;100518.44;;;17.41;100.00
41596;BME280;27283;52.504;13.358;2023-07-31T07:21:35;100522.16;;;17.53;98.91
41596;BME280;27283;52.504;13.358;2023-07-31T07:24:07;100522.41;;;17.45;100.00
41596;BME280;27283;52.504;13.358;2023-07-31T07:26:40;100518.53;;;17.27;100.00
41596;BME280;27283;52.504;13.358;2023-07-31T07:29:13;100518.06;;;17.37;100.00
41596;BME280;27283;52.504;13.358;2023-07-31T07:31:45;100513.88;;;17.34;100.00
41596;BME280;27283;52.504;13.358;2023-07-31T07:34:17;100507.25;;;17.24;100.00
41596;BME280;27283;52.504;13.358;2023-07-31T07:36:52;100504.78;;;17.15;100.00
41596;BME280;27283;52.504;13.358;2023-07-31T07:39:24;100506.22;;;17.18;100.00
41596;BME280;27283;52.504;13.358;2023-07-31T07:41:57;100506.16;;;17.31;100.00
41596;BME280;27283;52.504;13.358;2023-07-31T07:44:29;100501.03;;;17.55;100.00
41596;BME280;27283;52.504;13.358;2023-07-31T07:47:01;100507.22;;;17.69;100.00
41596;BME280;27283;52.504;13.358;2023-07-31T07:49:35;100506.69;;;17.92;100.00
41596;BME280;27283;52.504;13.358;2023-07-31T07:52:10;100501.47;;;17.91;100.00
41596;BME280;27283;52.504;13.358;2023-07-31T07:54:45;100498.97;;;17.89;100.00
41596;BME280;27283;52.504;13.358;2023-07-31T07:57:20;100495.53;;;17.62;100.00
41596;BME280;27283;52.504;13.358;2023-07-31T07:59:52;100500.13;;;17.68;100.00
41596;BME280;27283;52.504;13.358;2023-07-31T08:02:28;100492.22;;;17.60;100.00
41596;BME280;27283;52.504;13.358;2023-07-31T08:05:00;100487.19;;;17.25;100.00
41596;BME280;27283;52.504;13.358;2023-07-31T08:07:35;100490.50;;;17.27;100.00
41596;BME280;27283;52.504;13.358;2023-07-31T08:10:07;100489.84;;;17.38;100.00
41596;BME280;27283;52.504;13.358;2023-07-31T08:12:40;100485.81;;;17.41;100.00
41596;BME280;27283;52.504;13.358;2023-07-31T08:15:13;100493.56;;;17.44;100.00
41596;BME280;27283;52.504;13.358;2023-07-31T08:17:46;100484.13;;;17.46;100.00
41596;BME280;27283;52.504;13.358;2023-07-31T08:20:18;100474.22;;;17.59;100.00
41596;BME280;27283;52.504;13.358;2023-07-31T08:22:53;100474.56;;;17.76;100.00
41596;BME280;27283;52.504;13.358;2023-07-31T08:25:25;100470.06;;;17.88;100.00
41596;BME280;27283;52.504;13.358;2023-07-31T08:27:58;100475.75;;;17.80;100.00
41596;BME280;27283;52.504;13.358;2023-07-31T08:30:30;100484.94;;;17.92;100.00
41596;BME280;27283;52.504;13.358;2023-07-31T08:33:05;100487.50;;;17.74;100.00
41596;BME280;27283;52.504;13.358;2023-07-31T08:35:37;100486.19;;;17.83;100.00
41596;BME280;27283;52.504;13.358;2023-07-31T08:38:12;100482.06;;;17.74;100.00
41596;BME280;27283;52.504;13.358;2023-07-31T08:40:47;100474.69;;;17.87;100.00
41596;BME280;27283;52.504;13.358;2023-07-31T08:43:26;100478.88;;;17.83;100.00
41596;BME280;27283;52.504;13.358;2023-07-31T08:45:59;100485.66;;;17.74;100.00
41596;BME280;27283;52.504;13.358;2023-07-31T08:48:32;100481.97;;;17.94;100.00
41596;BME280;27283;52.504;13.358;2023-07-31T08:51:04;100477.38;;;17.94;100.00
41596;BME280;27283;52.504;13.358;2023-07-31T08:53:40;100472.91;;;18.25;100.00
41596;BME280;27283;52.504;13.358;2023-07-31T08:56:13;100479.31;;;18.37;100.00
41596;BME280;27283;52.504;13.358;2023-07-31T08:58:47;100478.19;;;18.45;100.00
41596;BME280;27283;52.504;13.358;2023-07-31T09:01:22;100476.28;;;18.46;100.00
41596;BME280;27283;52.504;13.358;2023-07-31T09:04:05;100478.63;;;18.42;100.00
41596;BME280;27283;52.504;13.358;2023-07-31T09:06:48;100484.25;;;18.84;100.00
41596;BME280;27283;52.504;13.358;2023-07-31T09:09:26;100474.06;;;18.98;95.72
41596;BME280;27283;52.504;13.358;2023-07-31T09:11:59;100478.13;;;19.07;100.00
41596;BME280;27283;52.504;13.358;2023-07-31T09:14:32;100481.81;;;19.32;94.19
41596;BME280;27283;52.504;13.358;2023-07-31T09:17:06;100471.50;;;19.34;95.78
41596;BME280;27283;52.504;13.358;2023-07-31T09:19:42;100470.81;;;18.89;99.02
41596;BME280;27283;52.504;13.358;2023-07-31T09:22:15;100473.09;;;18.67;100.00
41596;BME280;27283;52.504;13.358;2023-07-31T09:24:50;100470.69;;;18.59;100.00
41596;BME280;27283;52.504;13.358;2023-07-31T09:27:31;100472.66;;;18.52;100.00
41596;BME280;27283;52.504;13.358;2023-07-31T09:30:27;100469.25;;;18.38;100.00
41596;BME280;27283;52.504;13.358;2023-07-31T09:33:14;100469.59;;;18.41;100.00
41596;BME280;27283;52.504;13.358;2023-07-31T09:35:48;100467.47;;;18.25;100.00
41596;BME280;27283;52.504;13.358;2023-07-31T09:38:26;100469.13;;;18.01;100.00
41596;BME280;27283;52.504;13.358;2023-07-31T09:41:05;100466.94;;;17.91;100.00
41596;BME280;27283;52.504;13.358;2023-07-31T09:43:40;100468.69;;;18.04;100.00
41596;BME280;27283;52.504;13.358;2023-07-31T09:46:13;100466.19;;;18.02;100.00
41596;BME280;27283;52.504;13.358;2023-07-31T09:48:47;100463.03;;;18.05;100.00
41596;BME280;27283;52.504;13.358;2023-07-31T09:51:26;100466.81;;;18.04;100.00
41596;BME280;27283;52.504;13.358;2023-07-31T09:54:01;100471.09;;;17.94;100.00
41596;BME280;27283;52.504;13.358;2023-07-31T09:56:42;100460.03;;;18.14;100.00
41596;BME280;27283;52.504;13.358;2023-07-31T09:59:18;100452.38;;;18.04;100.00
41596;BME280;27283;52.504;13.358;2023-07-31T10:01:55;100461.50;;;18.16;100.00
41596;BME280;27283;52.504;13.358;2023-07-31T10:04:31;100456.13;;;18.28;100.00
41596;BME280;27283;52.504;13.358;2023-07-31T10:07:05;100453.50;;;18.40;100.00
41596;BME280;27283;52.504;13.358;2023-07-31T10:09:38;100453.91;;;18.62;100.00
41596;BME280;27283;52.504;13.358;2023-07-31T10:12:14;100454.22;;;18.72;100.00
41596;BME280;27283;52.504;13.358;2023-07-31T10:14:49;100453.53;;;18.77;96.00
41596;BME280;27283;52.504;13.358;2023-07-31T10:17:25;100451.19;;;18.81;96.10
41596;BME280;27283;52.504;13.358;2023-07-31T10:19:58;100447.47;;;18.75;98.00
41596;BME280;27283;52.504;13.358;2023-07-31T10:22:34;100449.59;;;18.91;93.93
41596;BME280;27283;52.504;13.358;2023-07-31T10:25:08;100460.84;;;18.58;98.52
41596;BME280;27283;52.504;13.358;2023-07-31T10:27:45;100441.03;;;18.51;99.19
41596;BME280;27283;52.504;13.358;2023-07-31T10:30:26;100433.72;;;18.33;100.00
41596;BME280;27283;52.504;13.358;2023-07-31T10:33:20;100435.53;;;18.57;100.00
41596;BME280;27283;52.504;13.358;2023-07-31T10:36:14;100443.63;;;18.83;100.00
41596;BME280;27283;52.504;13.358;2023-07-31T10:38:49;100441.22;;;19.23;97.43
41596;BME280;27283;52.504;13.358;2023-07-31T10:41:38;100433.38;;;19.45;98.33
41596;BME280;27283;52.504;13.358;2023-07-31T10:44:17;100417.16;;;19.62;99.19
41596;BME280;27283;52.504;13.358;2023-07-31T10:46:54;100420.22;;;20.08;98.02
41596;BME280;27283;52.504;13.358;2023-07-31T10:49:30;100406.22;;;20.93;92.76
41596;BME280;27283;52.504;13.358;2023-07-31T10:52:07;100408.47;;;21.53;82.75
41596;BME280;27283;52.504;13.358;2023-07-31T10:54:43;100403.69;;;21.32;87.15
41596;BME280;27283;52.504;13.358;2023-07-31T10:57:20;100392.72;;;21.77;81.21
41596;BME280;27283;52.504;13.358;2023-07-31T11:00:18;100395.34;;;22.06;80.19
41596;BME280;27283;52.504;13.358;2023-07-31T11:02:58;100380.13;;;22.33;77.65
41596;BME280;27283;52.504;13.358;2023-07-31T11:05:49;100382.00;;;22.49;78.91
41596;BME280;27283;52.504;13.358;2023-07-31T11:08:24;100386.72;;;22.32;77.81
41596;BME280;27283;52.504;13.358;2023-07-31T11:11:08;100387.94;;;21.39;80.40
41596;BME280;27283;52.504;13.358;2023-07-31T11:13:45;100389.16;;;20.74;76.51
41596;BME280;27283;52.504;13.358;2023-07-31T11:16:22;100384.81;;;20.49;82.92
41596;BME280;27283;52.504;13.358;2023-07-31T11:18:55;100388.47;;;20.54;82.23
41596;BME280;27283;52.504;13.358;2023-07-31T11:21:28;100384.00;;;20.89;80.85
41596;BME280;27283;52.504;13.358;2023-07-31T11:24:02;100381.28;;;20.89;77.92
41596;BME280;27283;52.504;13.358;2023-07-31T11:26:35;100392.00;;;20.79;82.38
41596;BME280;27283;52.504;13.358;2023-07-31T11:29:12;100385.75;;;20.95;82.37
41596;BME280;27283;52.504;13.358;2023-07-31T11:31:48;100387.47;;;21.13;82.60
41596;BME280;27283;52.504;13.358;2023-07-31T11:34:24;100379.13;;;21.20;84.09
41596;BME280;27283;52.504;13.358;2023-07-31T11:36:59;100382.44;;;20.93;79.79
41596;BME280;27283;52.504;13.358;2023-07-31T11:39:32;100382.28;;;21.00;76.61
41596;BME280;27283;52.504;13.358;2023-07-31T11:42:06;100382.28;;;20.59;76.37
41596;BME280;27283;52.504;13.358;2023-07-31T11:44:40;100389.03;;;20.80;77.30
41596;BME280;27283;52.504;13.358;2023-07-31T11:47:25;100390.22;;;20.61;76.35
41596;BME280;27283;52.504;13.358;2023-07-31T11:50:13;100384.00;;;20.36;77.61
41596;BME280;27283;52.504;13.358;2023-07-31T11:52:51;100381.25;;;20.36;77.94
41596;BME280;27283;52.504;13.358;2023-07-31T11:55:28;100386.69;;;20.60;78.69
41596;BME280;27283;52.504;13.358;2023-07-31T11:58:13;100374.28;;;20.81;77.30
41596;BME280;27283;52.504;13.358;2023-07-31T12:00:49;100373.44;;;20.93;78.22
41596;BME280;27283;52.504;13.358;2023-07-31T12:03:29;100371.72;;;20.75;76.07
41596;BME280;27283;52.504;13.358;2023-07-31T12:06:01;100379.66;;;20.76;78.25
41596;BME280;27283;52.504;13.358;2023-07-31T12:08:34;100372.94;;;20.67;81.82
41596;BME280;27283;52.504;13.358;2023-07-31T12:11:09;100360.84;;;20.92;74.91
41596;BME280;27283;52.504;13.358;2023-07-31T12:13:42;100361.59;;;21.04;76.58
41596;BME280;27283;52.504;13.358;2023-07-31T12:16:15;100364.13;;;21.22;78.06
41596;BME280;27283;52.504;13.358;2023-07-31T12:18:50;100355.03;;;21.34;77.58
41596;BME280;27283;52.504;13.358;2023-07-31T12:21:23;100353.63;;;21.48;74.80
41596;BME280;27283;52.504;13.358;2023-07-31T12:24:02;100349.75;;;21.44;75.56
41596;BME280;27283;52.504;13.358;2023-07-31T12:26:37;100350.53;;;21.56;68.32
41596;BME280;27283;52.504;13.358;2023-07-31T12:29:16;100350.09;;;21.65;69.60
41596;BME280;27283;52.504;13.358;2023-07-31T12:31:48;100353.94;;;21.64;72.70
41596;BME280;27283;52.504;13.358;2023-07-31T12:34:24;100345.13;;;21.62;73.40
41596;BME280;27283;52.504;13.358;2023-07-31T12:36:58;100345.25;;;21.89;68.44
41596;BME280;27283;52.504;13.358;2023-07-31T12:39:31;100335.50;;;22.15;68.89
41596;BME280;27283;52.504;13.358;2023-07-31T12:42:06;100332.44;;;22.11;69.84
41596;BME280;27283;52.504;13.358;2023-07-31T12:44:41;100332.50;;;22.34;68.50
41596;BME280;27283;52.504;13.358;2023-07-31T12:47:18;100325.47;;;22.43;65.29
41596;BME280;27283;52.504;13.358;2023-07-31T12:49:57;100321.88;;;22.20;68.16
41596;BME280;27283;52.504;13.358;2023-07-31T12:52:29;100311.53;;;22.22;71.43
41596;BME280;27283;52.504;13.358;2023-07-31T12:55:07;100321.34;;;22.40;66.97
41596;BME280;27283;52.504;13.358;2023-07-31T12:57:42;100311.41;;;21.95;73.21
41596;BME280;27283;52.504;13.358;2023-07-31T13:00:25;100310.41;;;21.62;70.64
41596;BME280;27283;52.504;13.358;2023-07-31T13:02:57;100310.47;;;21.67;71.59
41596;BME280;27283;52.504;13.358;2023-07-31T13:05:34;100317.09;;;21.71;70.87
41596;BME280;27283;52.504;13.358;2023-07-31T13:08:09;100322.34;;;21.10;74.38
41596;BME280;27283;52.504;13.358;2023-07-31T13:10:49;100319.03;;;21.08;71.24
41596;BME280;27283;52.504;13.358;2023-07-31T13:13:21;100307.19;;;21.19;73.11